Terminal Aerodrome Forecast
Issued by NWS Albany, NY

Home | Current Version | Previous Version | Text Only | Print | Product List | Glossary On
Versions: 1 2 3 4 5 6 7 8 9 10 11 12 13 14 15 16 17 18 19 20 21
000
FTUS41 KALY 281133
TAFPOU
TAF
KPOU 281133Z 2812/2912 00000KT P6SM FEW250
     FM281600 22004KT P6SM FEW050 SCT250
     FM282100 25005KT P6SM VCSH SCT050 BKN150
     FM290200 00000KT P6SM VCSH BKN050 OVC150
     FM290600 00000KT 4SM -RA BR SCT025 OVC050=

USA.gov is the U.S. government's official web portal to all federal, state and local government web resources and services.